Time;durP1;ratioP1;P1;durP2;ratioP2;P2;SDS_P1;SDS_P2;PMS_P1;PMS_P2;Temp;Humidity;BMP_temperature;BMP_pressure;BME280_temperature;BME280_humidity;BME280_pressure;Samples;Min_cycle;Max_cycle;Signal;HPM_P1;HPM_P2
2023/07/03 00:00:25;;;;;;;9.23;8.20;;;;;;;;;;5002348;28;20040;-82
2023/07/03 00:02:52;;;;;;;10.73;9.02;;;;;;;;;;5001714;28;20181;-82
2023/07/03 00:05:18;;;;;;;18.15;8.40;;;;;;;;;;4983625;28;20038;-80
2023/07/03 00:07:46;;;;;;;10.90;8.90;;;;;;;;;;4999769;28;20073;-81
2023/07/03 00:10:12;;;;;;;14.27;8.73;;;;;;;;;;4998231;28;20038;-81
2023/07/03 00:12:39;;;;;;;18.02;8.93;;;;;;;;;;4979722;28;20125;-80
2023/07/03 00:15:05;;;;;;;9.82;8.82;;;;;;;;;;4998495;28;20034;-82
2023/07/03 00:17:32;;;;;;;11.77;8.27;;;;;;;;;;4983024;28;20133;-82
2023/07/03 00:19:58;;;;;;;12.48;8.82;;;;;;;;;;5000714;28;20030;-81
2023/07/03 00:22:24;;;;;;;10.23;8.27;;;;;;;;;;5000605;28;20042;-81
2023/07/03 00:24:50;;;;;;;16.08;9.38;;;;;;;;;;4983245;28;20026;-79
2023/07/03 00:27:17;;;;;;;16.05;8.10;;;;;;;;;;4999822;28;20056;-80
2023/07/03 00:29:43;;;;;;;9.65;8.70;;;;;;;;;;4996101;28;20424;-82
2023/07/03 00:32:09;;;;;;;13.82;8.63;;;;;;;;;;4999031;28;20038;-81
2023/07/03 00:34:35;;;;;;;17.23;9.05;;;;;;;;;;5003622;28;20038;-81
2023/07/03 00:37:03;;;;;;;9.82;8.30;;;;;;;;;;5007068;28;20090;-80
2023/07/03 00:39:29;;;;;;;16.00;8.77;;;;;;;;;;5007988;28;20076;-82
2023/07/03 00:41:55;;;;;;;10.50;8.50;;;;;;;;;;5010922;28;20041;-81
2023/07/03 00:44:21;;;;;;;14.00;8.20;;;;;;;;;;5012868;28;20509;-81
2023/07/03 00:46:48;;;;;;;10.60;8.55;;;;;;;;;;5006915;28;20042;-78
2023/07/03 00:49:14;;;;;;;12.70;8.70;;;;;;;;;;4993634;28;20046;-78
2023/07/03 00:51:41;;;;;;;13.52;8.68;;;;;;;;;;4991881;28;20060;-75
2023/07/03 00:54:08;;;;;;;10.38;8.73;;;;;;;;;;4994921;28;20474;-78
2023/07/03 00:56:34;;;;;;;13.38;9.05;;;;;;;;;;4993793;28;20030;-78
2023/07/03 00:59:01;;;;;;;10.50;9.38;;;;;;;;;;4991705;28;20092;-77
2023/07/03 01:01:53;;;;;;;8.35;7.65;;;;;;;;;;4991401;28;20042;-77
2023/07/03 01:04:24;;;;;;;9.23;8.38;;;;;;;;;;4962387;28;20538;-76
2023/07/03 01:06:51;;;;;;;8.70;7.82;;;;;;;;;;4991619;28;20067;-77
2023/07/03 01:09:17;;;;;;;13.43;9.50;;;;;;;;;;4991531;28;20572;-78
2023/07/03 01:11:44;;;;;;;10.32;7.22;;;;;;;;;;4991356;28;20038;-78
2023/07/03 01:14:10;;;;;;;8.90;8.18;;;;;;;;;;4991549;28;20046;-78
2023/07/03 01:16:36;;;;;;;13.02;8.13;;;;;;;;;;4991120;28;20404;-77
2023/07/03 01:19:02;;;;;;;10.73;7.93;;;;;;;;;;4992619;28;20069;-78
2023/07/03 01:21:30;;;;;;;11.57;8.07;;;;;;;;;;4991067;28;20038;-78
2023/07/03 01:24:05;;;;;;;9.50;8.60;;;;;;;;;;4991517;28;20039;-78
2023/07/03 01:26:32;;;;;;;10.75;8.68;;;;;;;;;;4992165;28;20093;-78
2023/07/03 01:28:58;;;;;;;8.80;7.90;;;;;;;;;;4992275;28;20050;-78
2023/07/03 01:31:24;;;;;;;10.70;7.55;;;;;;;;;;4992520;28;20457;-78
2023/07/03 01:33:50;;;;;;;9.70;8.55;;;;;;;;;;4992188;28;20046;-78
2023/07/03 01:36:16;;;;;;;12.13;8.93;;;;;;;;;;4993601;28;20030;-77
2023/07/03 01:38:42;;;;;;;13.48;8.73;;;;;;;;;;4991312;28;20046;-77
2023/07/03 01:41:09;;;;;;;9.43;8.57;;;;;;;;;;4974499;28;20035;-76
2023/07/03 01:43:35;;;;;;;13.00;8.75;;;;;;;;;;4990071;28;20035;-78
2023/07/03 01:46:01;;;;;;;9.90;8.90;;;;;;;;;;4992294;28;20049;-78
2023/07/03 01:48:29;;;;;;;10.05;8.88;;;;;;;;;;4958255;28;20505;-78
2023/07/03 01:50:56;;;;;;;10.00;8.50;;;;;;;;;;4991982;28;20056;-77
2023/07/03 01:53:32;;;;;;;9.02;8.15;;;;;;;;;;4974619;28;20045;-78
2023/07/03 01:56:06;;;;;;;13.25;8.00;;;;;;;;;;4974829;28;20038;-78
2023/07/03 01:58:41;;;;;;;10.15;8.65;;;;;;;;;;4990359;28;20038;-77
2023/07/03 02:01:07;;;;;;;8.93;8.10;;;;;;;;;;4974458;28;20035;-78
2023/07/03 02:03:52;;;;;;;13.02;8.10;;;;;;;;;;4990210;28;20045;-78
2023/07/03 02:06:20;;;;;;;9.18;7.93;;;;;;;;;;4991813;28;20042;-77
2023/07/03 02:08:48;;;;;;;12.45;8.25;;;;;;;;;;4989979;28;20131;-78
2023/07/03 02:11:21;;;;;;;9.70;8.80;;;;;;;;;;4990691;28;20197;-77
2023/07/03 02:13:51;;;;;;;12.02;9.10;;;;;;;;;;4958407;28;20128;-77
2023/07/03 02:16:18;;;;;;;15.68;8.43;;;;;;;;;;4974642;28;20185;-77
2023/07/03 02:18:46;;;;;;;9.95;9.10;;;;;;;;;;4990399;28;20041;-77
2023/07/03 02:21:13;;;;;;;9.85;8.85;;;;;;;;;;4991932;28;20417;-77
2023/07/03 02:23:40;;;;;;;12.10;9.18;;;;;;;;;;4991200;28;20509;-77
2023/07/03 02:26:06;;;;;;;9.63;8.73;;;;;;;;;;4990236;28;20109;-77
2023/07/03 02:28:32;;;;;;;10.95;8.52;;;;;;;;;;4989902;28;20319;-76
2023/07/03 02:30:58;;;;;;;11.20;8.55;;;;;;;;;;4990163;28;20403;-78
2023/07/03 02:33:24;;;;;;;9.50;8.50;;;;;;;;;;4990077;28;20040;-78
2023/07/03 02:35:50;;;;;;;9.88;8.98;;;;;;;;;;4990783;28;20118;-78
2023/07/03 02:38:16;;;;;;;10.15;9.15;;;;;;;;;;4991251;28;20117;-78
2023/07/03 02:40:42;;;;;;;10.13;9.10;;;;;;;;;;4990905;28;20036;-77
2023/07/03 02:43:09;;;;;;;11.85;8.88;;;;;;;;;;4993278;28;20044;-78
2023/07/03 02:45:38;;;;;;;12.88;9.77;;;;;;;;;;4974543;28;20042;-78
2023/07/03 02:48:05;;;;;;;12.30;8.98;;;;;;;;;;4989744;28;20465;-77
2023/07/03 02:50:33;;;;;;;12.13;9.35;;;;;;;;;;4989335;28;20053;-78
2023/07/03 02:52:58;;;;;;;12.98;9.75;;;;;;;;;;4990760;28;20043;-78
2023/07/03 02:55:25;;;;;;;17.23;9.95;;;;;;;;;;4989712;28;20054;-77
2023/07/03 02:57:51;;;;;;;9.93;9.02;;;;;;;;;;4989406;28;20038;-76
2023/07/03 03:00:18;;;;;;;15.30;9.65;;;;;;;;;;4991355;28;20042;-79
2023/07/03 03:02:43;;;;;;;11.40;10.20;;;;;;;;;;4990729;28;20038;-79
2023/07/03 03:05:09;;;;;;;13.02;9.98;;;;;;;;;;4989652;28;20096;-78
2023/07/03 03:07:37;;;;;;;13.05;11.02;;;;;;;;;;4989533;28;20050;-79
2023/07/03 03:10:03;;;;;;;12.07;10.05;;;;;;;;;;4989844;28;20555;-78
2023/07/03 03:12:29;;;;;;;11.23;10.02;;;;;;;;;;4989497;28;20069;-78
2023/07/03 03:14:56;;;;;;;20.17;9.57;;;;;;;;;;4990697;28;20461;-78
2023/07/03 03:17:22;;;;;;;9.52;8.65;;;;;;;;;;4973298;28;20077;-78
2023/07/03 03:19:49;;;;;;;14.90;10.50;;;;;;;;;;4990495;28;20509;-78
2023/07/03 03:22:15;;;;;;;15.93;11.38;;;;;;;;;;4990591;28;20045;-79
2023/07/03 03:24:41;;;;;;;12.25;11.07;;;;;;;;;;4990581;28;20089;-78
2023/07/03 03:27:07;;;;;;;14.07;10.60;;;;;;;;;;4990511;28;20132;-77
2023/07/03 03:29:34;;;;;;;13.15;11.25;;;;;;;;;;4972855;28;20480;-77
2023/07/03 03:32:01;;;;;;;11.65;10.10;;;;;;;;;;4989441;28;20222;-79
2023/07/03 03:34:28;;;;;;;17.58;11.57;;;;;;;;;;4989632;28;20077;-77
2023/07/03 03:36:54;;;;;;;11.27;9.43;;;;;;;;;;4990606;28;20037;-79
2023/07/03 03:39:20;;;;;;;13.27;10.30;;;;;;;;;;4991228;28;20035;-78
2023/07/03 03:41:46;;;;;;;14.40;10.20;;;;;;;;;;4957343;28;20035;-78
2023/07/03 03:44:12;;;;;;;13.88;10.32;;;;;;;;;;4990840;28;20050;-77
2023/07/03 03:46:39;;;;;;;17.55;9.57;;;;;;;;;;4991698;28;20119;-77
2023/07/03 03:49:09;;;;;;;11.52;7.93;;;;;;;;;;4992643;28;20532;-79
2023/07/03 03:51:35;;;;;;;12.82;9.90;;;;;;;;;;4978205;28;20054;-77
2023/07/03 03:54:02;;;;;;;9.88;8.88;;;;;;;;;;4974940;28;20050;-79
2023/07/03 03:56:27;;;;;;;11.75;8.60;;;;;;;;;;4990767;28;20029;-77
2023/07/03 03:58:54;;;;;;;8.98;8.10;;;;;;;;;;4988409;28;20126;-78
2023/07/03 04:01:20;;;;;;;10.30;8.35;;;;;;;;;;4988770;28;20196;-78
2023/07/03 04:03:46;;;;;;;9.00;8.20;;;;;;;;;;4972478;28;20469;-78
2023/07/03 04:06:12;;;;;;;7.03;6.43;;;;;;;;;;4975287;28;20030;-78
2023/07/03 04:08:38;;;;;;;8.63;7.80;;;;;;;;;;4993409;28;20101;-79
2023/07/03 04:11:04;;;;;;;8.85;8.02;;;;;;;;;;4993739;28;20043;-78
2023/07/03 04:13:30;;;;;;;8.48;7.60;;;;;;;;;;4992519;28;20046;-78
2023/07/03 04:16:00;;;;;;;11.30;8.18;;;;;;;;;;4993450;28;20493;-77
2023/07/03 04:18:26;;;;;;;10.75;7.63;;;;;;;;;;4992407;28;20033;-78
2023/07/03 04:20:52;;;;;;;8.63;6.78;;;;;;;;;;4992338;28;20125;-78
2023/07/03 04:23:18;;;;;;;11.52;7.75;;;;;;;;;;4976321;28;20180;-78
2023/07/03 04:25:44;;;;;;;9.65;7.63;;;;;;;;;;4993179;28;20421;-77
2023/07/03 04:28:11;;;;;;;8.55;7.50;;;;;;;;;;4992273;28;20413;-77
2023/07/03 04:30:37;;;;;;;7.85;7.22;;;;;;;;;;4995440;28;20042;-77
2023/07/03 04:33:03;;;;;;;7.32;6.68;;;;;;;;;;4992650;28;20088;-78
2023/07/03 04:35:29;;;;;;;8.43;7.60;;;;;;;;;;4993468;28;20046;-79
2023/07/03 04:37:55;;;;;;;10.10;7.00;;;;;;;;;;4991836;28;20563;-79
2023/07/03 04:40:21;;;;;;;8.80;7.90;;;;;;;;;;4993523;28;20042;-79
2023/07/03 04:42:48;;;;;;;9.10;7.75;;;;;;;;;;4993027;28;20034;-79
2023/07/03 04:45:16;;;;;;;8.88;8.18;;;;;;;;;;4992211;28;20137;-79
2023/07/03 04:47:41;;;;;;;6.80;5.80;;;;;;;;;;4993244;28;20137;-78
2023/07/03 04:50:10;;;;;;;7.47;6.78;;;;;;;;;;4992098;28;20117;-78
2023/07/03 04:52:38;;;;;;;7.07;6.38;;;;;;;;;;4992836;28;20042;-77
2023/07/03 04:55:05;;;;;;;7.25;6.55;;;;;;;;;;4993011;28;20070;-76
2023/07/03 04:57:31;;;;;;;7.47;5.38;;;;;;;;;;4991783;28;20058;-78
2023/07/03 05:00:00;;;;;;;7.57;6.90;;;;;;;;;;4992684;28;20046;-78
2023/07/03 05:02:27;;;;;;;8.35;7.13;;;;;;;;;;4993008;28;20046;-78
2023/07/03 05:04:53;;;;;;;7.68;5.82;;;;;;;;;;4991405;28;20046;-79
2023/07/03 05:07:21;;;;;;;10.68;7.53;;;;;;;;;;4975346;28;20046;-78
2023/07/03 05:09:48;;;;;;;8.77;6.80;;;;;;;;;;4992490;28;20057;-78
2023/07/03 05:12:14;;;;;;;5.90;5.30;;;;;;;;;;4991349;28;20369;-79
2023/07/03 05:14:40;;;;;;;6.38;5.78;;;;;;;;;;4992494;28;20034;-78
2023/07/03 05:17:06;;;;;;;9.45;7.30;;;;;;;;;;4991776;28;20041;-77
2023/07/03 05:19:32;;;;;;;5.60;5.20;;;;;;;;;;4991876;28;20386;-80
2023/07/03 05:21:58;;;;;;;5.38;4.60;;;;;;;;;;4993127;28;20049;-79
2023/07/03 05:24:24;;;;;;;7.10;5.82;;;;;;;;;;4993038;28;20046;-80
2023/07/03 05:26:50;;;;;;;6.20;5.63;;;;;;;;;;4991994;28;20121;-79
2023/07/03 05:29:16;;;;;;;5.75;5.35;;;;;;;;;;4993195;28;20133;-79
2023/07/03 05:31:44;;;;;;;7.13;6.10;;;;;;;;;;4992574;28;20042;-79
2023/07/03 05:34:10;;;;;;;5.13;4.72;;;;;;;;;;4992660;28;20031;-78
2023/07/03 05:36:36;;;;;;;6.93;5.03;;;;;;;;;;4991792;28;20038;-79
2023/07/03 05:39:02;;;;;;;4.68;4.35;;;;;;;;;;4992653;28;20045;-77
2023/07/03 05:41:29;;;;;;;5.93;5.43;;;;;;;;;;4991528;28;20050;-77
2023/07/03 05:43:55;;;;;;;5.82;5.30;;;;;;;;;;4991001;28;20035;-79
2023/07/03 05:46:21;;;;;;;5.70;5.28;;;;;;;;;;4992481;28;20056;-78
2023/07/03 05:48:47;;;;;;;10.02;5.20;;;;;;;;;;4991776;28;20042;-78
2023/07/03 05:51:13;;;;;;;3.78;3.47;;;;;;;;;;4993818;28;20533;-77
2023/07/03 05:53:39;;;;;;;5.43;4.78;;;;;;;;;;4993761;28;20531;-79
2023/07/03 05:56:05;;;;;;;5.68;4.95;;;;;;;;;;4991434;28;20038;-78
2023/07/03 05:58:32;;;;;;;6.35;5.80;;;;;;;;;;4992328;28;20062;-78
2023/07/03 06:00:59;;;;;;;6.22;5.47;;;;;;;;;;4992046;28;20096;-79
2023/07/03 06:03:25;;;;;;;5.47;5.03;;;;;;;;;;4992591;28;20049;-77
2023/07/03 06:05:51;;;;;;;4.45;4.15;;;;;;;;;;4998647;28;20101;-78
2023/07/03 06:08:17;;;;;;;5.90;5.35;;;;;;;;;;5004918;28;20073;-78
2023/07/03 06:10:45;;;;;;;5.35;4.85;;;;;;;;;;4997988;28;20113;-78
2023/07/03 06:13:11;;;;;;;5.05;4.32;;;;;;;;;;4992602;28;20087;-78
2023/07/03 06:15:37;;;;;;;5.10;4.22;;;;;;;;;;4991986;28;20122;-78
2023/07/03 06:18:03;;;;;;;4.85;4.55;;;;;;;;;;4993052;28;20065;-79
2023/07/03 06:20:29;;;;;;;5.75;4.00;;;;;;;;;;4991740;28;20034;-78
2023/07/03 06:22:55;;;;;;;5.07;3.97;;;;;;;;;;4989906;28;20042;-78
2023/07/03 06:25:21;;;;;;;4.22;3.13;;;;;;;;;;4991371;28;20627;-77
2023/07/03 06:27:48;;;;;;;3.38;3.15;;;;;;;;;;4989443;28;20079;-77
2023/07/03 06:30:14;;;;;;;3.80;3.50;;;;;;;;;;4991266;28;20177;-79
2023/07/03 06:32:40;;;;;;;5.55;5.05;;;;;;;;;;4991195;28;20038;-78
2023/07/03 06:35:06;;;;;;;4.45;3.60;;;;;;;;;;4990913;28;20093;-79
2023/07/03 06:37:33;;;;;;;7.82;4.30;;;;;;;;;;4974735;28;20030;-77
2023/07/03 06:39:59;;;;;;;4.80;4.30;;;;;;;;;;4973715;28;20471;-78
2023/07/03 06:42:27;;;;;;;4.60;4.20;;;;;;;;;;4989611;28;20038;-78
2023/07/03 06:44:59;;;;;;;5.75;3.65;;;;;;;;;;4990943;28;20082;-78
2023/07/03 06:47:25;;;;;;;3.95;3.50;;;;;;;;;;4991101;28;20116;-78
2023/07/03 06:49:51;;;;;;;3.17;2.88;;;;;;;;;;4989563;28;20489;-78
2023/07/03 06:52:17;;;;;;;5.97;4.15;;;;;;;;;;4989976;28;20085;-78
2023/07/03 06:54:45;;;;;;;5.68;2.92;;;;;;;;;;4992682;28;20034;-78
2023/07/03 06:57:11;;;;;;;4.90;3.15;;;;;;;;;;4975143;28;20030;-78
2023/07/03 06:59:38;;;;;;;5.35;3.80;;;;;;;;;;4991482;28;20034;-78
2023/07/03 07:02:04;;;;;;;4.55;3.70;;;;;;;;;;4989390;28;20496;-78
2023/07/03 07:04:30;;;;;;;4.05;3.75;;;;;;;;;;4990808;28;20505;-81
2023/07/03 07:06:56;;;;;;;3.70;3.50;;;;;;;;;;4990761;28;20043;-78
2023/07/03 07:09:22;;;;;;;3.63;3.08;;;;;;;;;;4989699;28;20054;-79
2023/07/03 07:11:48;;;;;;;3.67;3.42;;;;;;;;;;4991098;28;20030;-80
2023/07/03 07:14:14;;;;;;;2.92;2.72;;;;;;;;;;4989936;28;20096;-79
2023/07/03 07:16:40;;;;;;;3.20;2.85;;;;;;;;;;4957781;28;20038;-79
2023/07/03 07:19:07;;;;;;;4.70;2.92;;;;;;;;;;4989368;28;20567;-78
2023/07/03 07:21:33;;;;;;;4.20;3.15;;;;;;;;;;4992346;28;20500;-80
2023/07/03 07:24:00;;;;;;;5.32;3.03;;;;;;;;;;4991992;28;20050;-78
2023/07/03 07:26:33;;;;;;;3.90;3.20;;;;;;;;;;5005774;28;20031;-79
2023/07/03 07:29:00;;;;;;;7.53;3.50;;;;;;;;;;4974773;28;20464;-78
2023/07/03 07:31:26;;;;;;;4.43;3.10;;;;;;;;;;4991147;28;20035;-78
2023/07/03 07:33:52;;;;;;;4.22;3.88;;;;;;;;;;4991506;28;20524;-77
2023/07/03 07:36:22;;;;;;;6.03;3.55;;;;;;;;;;4989399;28;20034;-79
2023/07/03 07:38:48;;;;;;;;;;;;;;;;;;4973630;28;20220;-77
2023/07/03 07:41:14;;;;;;;3.88;3.20;;;;;;;;;;4992171;28;20058;-78
2023/07/03 07:43:40;;;;;;;5.05;3.28;;;;;;;;;;4993305;28;20062;-78
2023/07/03 07:46:06;;;;;;;8.60;3.20;;;;;;;;;;4994689;28;20582;-79
2023/07/03 07:48:32;;;;;;;3.67;2.50;;;;;;;;;;4994522;28;20046;-79
2023/07/03 07:50:58;;;;;;;4.65;3.10;;;;;;;;;;4994664;28;20050;-79
2023/07/03 07:53:26;;;;;;;7.63;3.25;;;;;;;;;;4996092;28;20073;-77
2023/07/03 07:55:52;;;;;;;2.65;2.45;;;;;;;;;;4996970;28;20128;-78
2023/07/03 07:58:18;;;;;;;4.40;3.13;;;;;;;;;;4996725;28;20053;-78
2023/07/03 08:00:45;;;;;;;2.97;2.78;;;;;;;;;;4997003;28;20069;-79
2023/07/03 08:03:11;;;;;;;3.70;3.40;;;;;;;;;;4978838;28;20120;-78
2023/07/03 08:05:37;;;;;;;4.13;3.40;;;;;;;;;;4997023;28;20061;-76
2023/07/03 08:08:03;;;;;;;5.30;3.28;;;;;;;;;;4997322;28;20552;-79
2023/07/03 08:10:29;;;;;;;5.38;3.38;;;;;;;;;;4997789;28;20513;-78
2023/07/03 08:12:55;;;;;;;3.42;3.17;;;;;;;;;;4996553;28;20116;-78
2023/07/03 08:15:21;;;;;;;3.88;3.00;;;;;;;;;;4998162;28;20417;-80
2023/07/03 08:17:47;;;;;;;3.67;3.10;;;;;;;;;;4997733;28;20030;-79
2023/07/03 08:20:13;;;;;;;3.20;3.00;;;;;;;;;;4981681;28;20038;-80
2023/07/03 08:22:39;;;;;;;7.35;3.60;;;;;;;;;;5001015;28;20404;-80
2023/07/03 08:25:05;;;;;;;6.13;3.55;;;;;;;;;;4999035;28;20046;-80
2023/07/03 08:27:31;;;;;;;5.22;3.55;;;;;;;;;;4995639;28;20041;-78
2023/07/03 08:29:57;;;;;;;5.88;3.08;;;;;;;;;;4995015;28;20081;-79
2023/07/03 08:32:24;;;;;;;3.13;2.92;;;;;;;;;;4995984;28;20525;-79
2023/07/03 08:34:50;;;;;;;3.72;3.15;;;;;;;;;;4995067;28;20493;-76
2023/07/03 08:37:16;;;;;;;3.85;3.55;;;;;;;;;;4994974;28;20473;-78
2023/07/03 08:39:42;;;;;;;4.72;3.33;;;;;;;;;;4977490;28;20038;-79
2023/07/03 08:42:11;;;;;;;4.78;3.10;;;;;;;;;;4996184;28;20038;-78
2023/07/03 08:44:37;;;;;;;3.03;2.83;;;;;;;;;;4996671;28;20042;-79
2023/07/03 08:47:03;;;;;;;5.00;2.55;;;;;;;;;;4979552;28;20121;-79
2023/07/03 08:49:29;;;;;;;2.95;2.75;;;;;;;;;;4994363;28;20050;-79
2023/07/03 08:51:55;;;;;;;3.67;3.20;;;;;;;;;;4993971;28;20065;-79
2023/07/03 08:54:22;;;;;;;4.07;3.22;;;;;;;;;;4996200;28;20053;-79
2023/07/03 08:56:48;;;;;;;6.18;3.22;;;;;;;;;;4993245;28;20030;-77
2023/07/03 08:59:15;;;;;;;3.95;2.78;;;;;;;;;;4997311;28;20034;-79
2023/07/03 09:01:59;;;;;;;6.70;2.90;;;;;;;;;;4994699;28;20046;-79
2023/07/03 09:04:44;;;;;;;3.05;2.83;;;;;;;;;;4993641;28;20080;-79
2023/07/03 09:07:13;;;;;;;6.15;2.75;;;;;;;;;;4996248;28;20543;-80
2023/07/03 09:09:48;;;;;;;4.57;3.33;;;;;;;;;;4997386;28;20131;-80
2023/07/03 09:12:13;;;;;;;3.42;3.13;;;;;;;;;;5002412;28;20073;-78
2023/07/03 09:14:42;;;;;;;5.18;3.20;;;;;;;;;;5004093;28;20042;-79
2023/07/03 09:17:08;;;;;;;4.47;3.15;;;;;;;;;;4997058;28;20084;-80
2023/07/03 09:19:35;;;;;;;4.20;2.67;;;;;;;;;;4976826;28;20034;-79
2023/07/03 09:22:02;;;;;;;4.55;3.00;;;;;;;;;;4992305;28;20046;-79
2023/07/03 09:24:36;;;;;;;2.75;2.55;;;;;;;;;;4993242;28;20034;-79
2023/07/03 09:27:10;;;;;;;3.65;3.33;;;;;;;;;;4993035;28;20424;-80
2023/07/03 09:29:36;;;;;;;3.42;3.13;;;;;;;;;;4976939;28;20046;-79
2023/07/03 09:32:02;;;;;;;4.57;2.20;;;;;;;;;;4994255;28;20042;-80
2023/07/03 09:34:28;;;;;;;2.80;2.63;;;;;;;;;;4993629;28;20413;-79
2023/07/03 09:37:03;;;;;;;2.80;2.40;;;;;;;;;;4993896;28;20506;-79
2023/07/03 09:39:29;;;;;;;4.05;2.97;;;;;;;;;;4997564;28;20093;-79
2023/07/03 09:42:05;;;;;;;3.08;2.80;;;;;;;;;;4979082;28;20034;-79
2023/07/03 09:44:31;;;;;;;5.55;3.00;;;;;;;;;;4997747;28;20390;-79
2023/07/03 09:46:56;;;;;;;6.38;2.72;;;;;;;;;;4998599;28;20112;-79
2023/07/03 09:49:24;;;;;;;16.98;4.18;;;;;;;;;;4995644;28;20136;-78
2023/07/03 09:51:51;;;;;;;3.00;2.70;;;;;;;;;;4995893;28;20054;-79
2023/07/03 09:54:18;;;;;;;2.70;2.50;;;;;;;;;;4996454;28;20036;-79
2023/07/03 09:56:44;;;;;;;2.97;2.75;;;;;;;;;;4998939;28;20069;-79
2023/07/03 09:59:10;;;;;;;5.07;2.60;;;;;;;;;;4998912;28;20026;-80
2023/07/03 10:01:37;;;;;;;7.93;2.90;;;;;;;;;;5001967;28;20139;-80
2023/07/03 10:04:07;;;;;;;4.30;2.30;;;;;;;;;;4996597;28;20046;-82
2023/07/03 10:06:33;;;;;;;2.03;1.90;;;;;;;;;;4998577;28;20034;-80
2023/07/03 10:09:04;;;;;;;2.53;2.33;;;;;;;;;;4992918;28;20057;-80
2023/07/03 10:11:51;;;;;;;4.00;2.53;;;;;;;;;;4993031;28;20034;-80
2023/07/03 10:14:24;;;;;;;3.85;2.50;;;;;;;;;;4994359;28;20065;-79
2023/07/03 10:16:50;;;;;;;2.70;2.22;;;;;;;;;;4977499;28;20041;-79
2023/07/03 10:19:17;;;;;;;4.85;2.70;;;;;;;;;;4996260;28;20042;-80
2023/07/03 10:21:43;;;;;;;2.50;2.10;;;;;;;;;;4991187;28;20033;-79
2023/07/03 10:24:09;;;;;;;6.20;3.05;;;;;;;;;;4991764;28;20088;-80
2023/07/03 10:26:39;;;;;;;1.73;1.63;;;;;;;;;;4992123;28;20138;-81
2023/07/03 10:29:25;;;;;;;2.72;2.53;;;;;;;;;;4990034;28;20046;-79
2023/07/03 10:31:52;;;;;;;2.33;2.13;;;;;;;;;;4974768;28;20476;-79
2023/07/03 10:34:31;;;;;;;3.53;2.33;;;;;;;;;;4989940;28;20030;-80
2023/07/03 10:37:01;;;;;;;2.60;2.40;;;;;;;;;;4991640;28;20405;-80
2023/07/03 10:39:31;;;;;;;2.65;2.30;;;;;;;;;;4992292;28;20030;-79
2023/07/03 10:41:59;;;;;;;8.63;2.88;;;;;;;;;;4990421;28;20421;-79
2023/07/03 10:44:26;;;;;;;3.53;2.10;;;;;;;;;;4989950;28;20117;-78
2023/07/03 10:46:55;;;;;;;2.30;2.20;;;;;;;;;;4991334;28;20034;-81
2023/07/03 10:49:29;;;;;;;5.47;2.80;;;;;;;;;;4989628;28;20442;-79
2023/07/03 10:51:55;;;;;;;2.75;2.53;;;;;;;;;;4991105;28;20555;-79
2023/07/03 10:54:25;;;;;;;2.08;1.98;;;;;;;;;;4990580;28;20422;-80
2023/07/03 10:56:51;;;;;;;6.40;1.92;;;;;;;;;;4989787;28;20027;-80
2023/07/03 10:59:22;;;;;;;4.63;2.30;;;;;;;;;;4989424;28;20038;-80
2023/07/03 11:01:54;;;;;;;7.00;2.40;;;;;;;;;;4989829;28;20046;-78
2023/07/03 11:04:21;;;;;;;2.50;2.30;;;;;;;;;;4990603;28;20405;-79
2023/07/03 11:06:57;;;;;;;5.60;2.40;;;;;;;;;;4990998;28;20069;-80
2023/07/03 11:09:33;;;;;;;12.05;2.80;;;;;;;;;;4989428;28;20105;-79
2023/07/03 11:12:05;;;;;;;3.85;2.35;;;;;;;;;;4990817;28;20685;-79
2023/07/03 11:14:35;;;;;;;2.20;2.10;;;;;;;;;;4958685;28;20042;-79
2023/07/03 11:17:01;;;;;;;;;;;;;;;;;;4993915;28;20034;-78
2023/07/03 11:19:41;;;;;;;2.92;2.72;;;;;;;;;;4994650;28;19913;-80
2023/07/03 11:22:12;;;;;;;4.55;2.30;;;;;;;;;;4994392;28;20101;-79
2023/07/03 11:24:56;;;;;;;4.47;2.38;;;;;;;;;;4994776;28;20042;-79
2023/07/03 11:27:38;;;;;;;2.92;2.50;;;;;;;;;;4993248;28;20046;-80
2023/07/03 11:30:04;;;;;;;4.55;2.33;;;;;;;;;;4994684;28;20069;-77
2023/07/03 11:32:33;;;;;;;4.22;2.60;;;;;;;;;;4993896;28;20030;-79
2023/07/03 11:34:59;;;;;;;3.22;2.70;;;;;;;;;;5004050;28;20042;-79
2023/07/03 11:37:44;;;;;;;5.00;2.58;;;;;;;;;;5008200;28;20026;-79
2023/07/03 11:40:22;;;;;;;3.22;2.78;;;;;;;;;;5003297;28;20107;-79
2023/07/03 11:42:53;;;;;;;2.13;2.03;;;;;;;;;;4995444;28;20053;-79
2023/07/03 11:45:26;;;;;;;2.95;2.67;;;;;;;;;;4994854;28;20256;-80
2023/07/03 11:47:52;;;;;;;2.70;2.50;;;;;;;;;;4993629;28;20055;-79
2023/07/03 11:50:26;;;;;;;9.15;2.65;;;;;;;;;;4994148;28;20046;-80
2023/07/03 11:52:52;;;;;;;2.67;1.95;;;;;;;;;;4994951;28;20038;-79
2023/07/03 11:55:18;;;;;;;5.45;2.65;;;;;;;;;;4992980;28;20037;-80
2023/07/03 11:57:46;;;;;;;2.33;2.20;;;;;;;;;;4992998;28;20042;-79
2023/07/03 12:00:16;;;;;;;2.13;1.95;;;;;;;;;;4994090;28;20041;-78
2023/07/03 12:02:49;;;;;;;5.00;4.60;;;;;;;;;;4994654;28;20151;-78
2023/07/03 12:05:34;;;;;;;2.50;2.30;;;;;;;;;;4994503;28;20034;-80
2023/07/03 12:08:00;;;;;;;4.15;1.95;;;;;;;;;;5003168;28;20038;-79
2023/07/03 12:10:30;;;;;;;5.15;2.78;;;;;;;;;;5001684;28;20518;-78
2023/07/03 12:13:15;;;;;;;13.30;2.83;;;;;;;;;;5005253;28;20185;-79
2023/07/03 12:15:41;;;;;;;3.13;2.30;;;;;;;;;;5002672;28;20138;-79
2023/07/03 12:18:08;;;;;;;2.75;2.45;;;;;;;;;;4995892;28;20092;-79
2023/07/03 12:20:34;;;;;;;3.15;2.40;;;;;;;;;;4994056;28;20125;-79
2023/07/03 12:23:00;;;;;;;5.70;2.40;;;;;;;;;;4992609;28;20113;-79
2023/07/03 12:25:27;;;;;;;2.45;2.22;;;;;;;;;;4993005;28;20038;-79
2023/07/03 12:27:54;;;;;;;5.78;2.47;;;;;;;;;;4993390;28;20038;-78
2023/07/03 12:30:21;;;;;;;4.53;2.30;;;;;;;;;;4975921;28;20576;-78
2023/07/03 12:32:48;;;;;;;4.38;1.77;;;;;;;;;;4992146;28;20034;-79
2023/07/03 12:35:16;;;;;;;3.03;2.05;;;;;;;;;;4992047;28;20041;-80
2023/07/03 12:37:44;;;;;;;2.92;2.03;;;;;;;;;;4993481;28;20523;-78
2023/07/03 12:40:10;;;;;;;4.68;2.47;;;;;;;;;;4975746;28;20162;-79
2023/07/03 12:42:36;;;;;;;2.70;2.50;;;;;;;;;;4993284;28;20122;-79
2023/07/03 12:45:13;;;;;;;5.35;2.58;;;;;;;;;;4993218;28;20030;-78
2023/07/03 12:47:40;;;;;;;2.03;1.83;;;;;;;;;;4993211;28;20072;-80
2023/07/03 12:50:06;;;;;;;2.50;2.30;;;;;;;;;;4992861;28;20042;-80
2023/07/03 12:52:33;;;;;;;5.05;2.55;;;;;;;;;;4993222;28;20046;-79
2023/07/03 12:55:00;;;;;;;5.40;2.53;;;;;;;;;;4991826;28;20046;-80
2023/07/03 12:57:25;;;;;;;6.60;2.60;;;;;;;;;;4991676;28;20031;-77
2023/07/03 12:59:52;;;;;;;5.30;2.55;;;;;;;;;;4993044;28;20493;-79
2023/07/03 13:02:21;;;;;;;2.70;2.20;;;;;;;;;;4975700;28;20428;-79
2023/07/03 13:04:52;;;;;;;2.58;2.38;;;;;;;;;;4991915;28;20563;-79
2023/07/03 13:07:17;;;;;;;;;;;;;;;;;;4959834;28;20039;-79
2023/07/03 13:09:43;;;;;;;3.35;1.98;;;;;;;;;;4991970;28;20463;-79
2023/07/03 13:12:16;;;;;;;2.50;2.30;;;;;;;;;;4992759;28;20456;-79
2023/07/03 13:14:47;;;;;;;2.70;2.50;;;;;;;;;;4992967;28;20464;-79
2023/07/03 13:17:24;;;;;;;3.97;2.65;;;;;;;;;;4991454;28;20065;-80
2023/07/03 13:19:50;;;;;;;6.75;2.20;;;;;;;;;;4975500;28;20034;-80
2023/07/03 13:22:20;;;;;;;2.60;2.40;;;;;;;;;;4992645;28;20038;-80
2023/07/03 13:24:47;;;;;;;3.88;2.88;;;;;;;;;;4995821;28;20038;-78
2023/07/03 13:27:20;;;;;;;3.10;2.35;;;;;;;;;;4992666;28;20031;-78
2023/07/03 13:29:46;;;;;;;2.50;2.30;;;;;;;;;;4992660;28;20054;-79
2023/07/03 13:32:14;;;;;;;3.50;2.40;;;;;;;;;;4992507;28;20034;-79
2023/07/03 13:35:03;;;;;;;2.97;2.50;;;;;;;;;;4992529;28;20092;-80
2023/07/03 13:37:32;;;;;;;2.63;2.20;;;;;;;;;;4984872;28;20073;-79
2023/07/03 13:39:58;;;;;;;3.30;2.38;;;;;;;;;;4992510;28;20046;-79
2023/07/03 13:42:24;;;;;;;5.30;2.50;;;;;;;;;;4992133;28;20034;-78
2023/07/03 13:44:50;;;;;;;7.00;2.17;;;;;;;;;;4992244;28;20034;-78
2023/07/03 13:47:16;;;;;;;2.70;1.58;;;;;;;;;;4992109;28;20117;-80
2023/07/03 13:49:42;;;;;;;2.97;2.13;;;;;;;;;;4991085;28;20472;-79
2023/07/03 13:52:08;;;;;;;4.13;2.50;;;;;;;;;;4992452;28;20058;-80
2023/07/03 13:54:34;;;;;;;4.45;2.47;;;;;;;;;;4999815;28;20039;-79
2023/07/03 13:57:00;;;;;;;3.13;2.58;;;;;;;;;;4997160;28;20034;-79
2023/07/03 13:59:27;;;;;;;7.55;2.58;;;;;;;;;;4992108;28;20500;-78
2023/07/03 14:01:53;;;;;;;2.60;2.40;;;;;;;;;;4992286;28;20096;-79
2023/07/03 14:04:19;;;;;;;7.07;2.00;;;;;;;;;;4990726;28;20042;-80
2023/07/03 14:06:46;;;;;;;4.20;2.85;;;;;;;;;;4992075;28;20509;-79
2023/07/03 14:09:12;;;;;;;3.75;2.55;;;;;;;;;;4991701;28;20497;-80
2023/07/03 14:11:38;;;;;;;7.53;2.50;;;;;;;;;;4992316;28;20406;-79
2023/07/03 14:14:04;;;;;;;2.40;2.20;;;;;;;;;;4992087;28;20525;-78
2023/07/03 14:16:31;;;;;;;2.40;2.20;;;;;;;;;;4958630;28;20072;-79
2023/07/03 14:18:57;;;;;;;2.15;2.03;;;;;;;;;;4992152;28;20064;-79
2023/07/03 14:21:24;;;;;;;3.40;2.40;;;;;;;;;;5015420;28;20058;-79
2023/07/03 14:23:50;;;;;;;1.73;1.63;;;;;;;;;;5002194;28;20050;-78
2023/07/03 14:26:16;;;;;;;3.13;2.90;;;;;;;;;;4995213;28;20054;-80
2023/07/03 14:28:43;;;;;;;2.50;2.30;;;;;;;;;;4997686;28;20054;-79
2023/07/03 14:31:10;;;;;;;4.00;2.35;;;;;;;;;;4993197;28;20026;-79
2023/07/03 14:33:35;;;;;;;6.18;2.45;;;;;;;;;;4991951;28;20042;-79
2023/07/03 14:36:02;;;;;;;2.28;2.15;;;;;;;;;;4992343;28;20053;-78
2023/07/03 14:38:28;;;;;;;5.88;2.92;;;;;;;;;;4992737;28;20046;-79
2023/07/03 14:40:53;;;;;;;2.67;2.47;;;;;;;;;;4992948;28;20037;-79
2023/07/03 14:43:19;;;;;;;3.05;2.60;;;;;;;;;;4993187;28;20038;-79